sensor_id;sensor_type;location;lat;lon;timestamp;pressure;altitude;pressure_sealevel;temperature;humidity
76022;BME280;64718;52.124;6.226;2023-11-18T00:00:23;102466.91;;;2.75;100.00
76022;BME280;64718;52.124;6.226;2023-11-18T00:02:50;102458.25;;;2.69;100.00
76022;BME280;64718;52.124;6.226;2023-11-18T00:05:16;102458.25;;;2.69;100.00
76022;BME280;64718;52.124;6.226;2023-11-18T00:07:43;102460.91;;;2.75;100.00
76022;BME280;64718;52.124;6.226;2023-11-18T00:10:10;102458.34;;;2.75;100.00
76022;BME280;64718;52.124;6.226;2023-11-18T00:12:38;102461.03;;;2.84;100.00
76022;BME280;64718;52.124;6.226;2023-11-18T00:15:07;102462.69;;;2.80;100.00
76022;BME280;64718;52.124;6.226;2023-11-18T00:17:36;102466.19;;;2.84;100.00
76022;BME280;64718;52.124;6.226;2023-11-18T00:20:03;102454.25;;;2.88;100.00
76022;BME280;64718;52.124;6.226;2023-11-18T00:22:34;102455.19;;;2.91;100.00
76022;BME280;64718;52.124;6.226;2023-11-18T00:25:00;102453.50;;;2.93;100.00
76022;BME280;64718;52.124;6.226;2023-11-18T00:27:30;102452.72;;;2.99;100.00
76022;BME280;64718;52.124;6.226;2023-11-18T00:29:58;102451.94;;;3.03;100.00
76022;BME280;64718;52.124;6.226;2023-11-18T00:32:24;102442.63;;;3.11;100.00
76022;BME280;64718;52.124;6.226;2023-11-18T00:34:51;102448.69;;;3.16;100.00
76022;BME280;64718;52.124;6.226;2023-11-18T00:37:17;102441.06;;;3.22;100.00
76022;BME280;64718;52.124;6.226;2023-11-18T00:39:44;102444.56;;;3.29;100.00
76022;BME280;64718;52.124;6.226;2023-11-18T00:42:10;102441.16;;;3.31;100.00
76022;BME280;64718;52.124;6.226;2023-11-18T00:44:37;102442.06;;;3.35;100.00
76022;BME280;64718;52.124;6.226;2023-11-18T00:47:05;102438.72;;;3.40;100.00
76022;BME280;64718;52.124;6.226;2023-11-18T00:49:31;102447.50;;;3.55;100.00
76022;BME280;64718;52.124;6.226;2023-11-18T00:51:59;102446.56;;;3.49;100.00
76022;BME280;64718;52.124;6.226;2023-11-18T00:54:25;102449.06;;;3.45;100.00
76022;BME280;64718;52.124;6.226;2023-11-18T00:56:52;102452.44;;;3.41;100.00
76022;BME280;64718;52.124;6.226;2023-11-18T00:59:19;102461.06;;;3.44;100.00
76022;BME280;64718;52.124;6.226;2023-11-18T01:01:45;102456.72;;;3.42;100.00
76022;BME280;64718;52.124;6.226;2023-11-18T01:04:13;102450.75;;;3.43;100.00
76022;BME280;64718;52.124;6.226;2023-11-18T01:06:41;102448.97;;;3.39;100.00
76022;BME280;64718;52.124;6.226;2023-11-18T01:09:08;102448.31;;;3.51;100.00
76022;BME280;64718;52.124;6.226;2023-11-18T01:11:35;102454.47;;;3.65;100.00
76022;BME280;64718;52.124;6.226;2023-11-18T01:14:02;102466.59;;;3.73;100.00
76022;BME280;64718;52.124;6.226;2023-11-18T01:16:28;102460.63;;;3.79;100.00
76022;BME280;64718;52.124;6.226;2023-11-18T01:18:55;102468.41;;;3.82;100.00
76022;BME280;64718;52.124;6.226;2023-11-18T01:21:23;102459.84;;;3.85;100.00
76022;BME280;64718;52.124;6.226;2023-11-18T01:23:49;102464.22;;;3.93;100.00
76022;BME280;64718;52.124;6.226;2023-11-18T01:26:16;102465.97;;;3.96;100.00
76022;BME280;64718;52.124;6.226;2023-11-18T01:28:42;102462.59;;;4.00;100.00
76022;BME280;64718;52.124;6.226;2023-11-18T01:31:11;102463.47;;;4.03;100.00
76022;BME280;64718;52.124;6.226;2023-11-18T01:33:39;102470.34;;;4.03;100.00
76022;BME280;64718;52.124;6.226;2023-11-18T01:36:07;102469.56;;;4.07;100.00
76022;BME280;64718;52.124;6.226;2023-11-18T01:38:36;102474.69;;;4.07;100.00
76022;BME280;64718;52.124;6.226;2023-11-18T01:41:03;102464.44;;;4.10;100.00
76022;BME280;64718;52.124;6.226;2023-11-18T01:43:31;102474.78;;;4.16;100.00
76022;BME280;64718;52.124;6.226;2023-11-18T01:45:58;102463.72;;;4.23;100.00
76022;BME280;64718;52.124;6.226;2023-11-18T01:48:27;102463.72;;;4.26;100.00
76022;BME280;64718;52.124;6.226;2023-11-18T01:51:06;102469.69;;;4.19;100.00
76022;BME280;64718;52.124;6.226;2023-11-18T01:53:37;102465.34;;;4.17;100.00
76022;BME280;64718;52.124;6.226;2023-11-18T01:56:06;102454.97;;;4.06;100.00
76022;BME280;64718;52.124;6.226;2023-11-18T01:58:34;102451.47;;;4.04;100.00
76022;BME280;64718;52.124;6.226;2023-11-18T02:01:01;102446.28;;;3.99;100.00
76022;BME280;64718;52.124;6.226;2023-11-18T02:03:28;102445.41;;;3.97;100.00
76022;BME280;64718;52.124;6.226;2023-11-18T02:05:55;102452.16;;;3.88;100.00
76022;BME280;64718;52.124;6.226;2023-11-18T02:08:23;102451.25;;;3.84;100.00
76022;BME280;64718;52.124;6.226;2023-11-18T02:10:55;102452.94;;;3.80;100.00
76022;BME280;64718;52.124;6.226;2023-11-18T02:13:24;102440.91;;;3.79;100.00
76022;BME280;64718;52.124;6.226;2023-11-18T02:15:54;102446.88;;;3.74;100.00
76022;BME280;64718;52.124;6.226;2023-11-18T02:18:24;102446.78;;;3.68;100.00
76022;BME280;64718;52.124;6.226;2023-11-18T02:20:51;102448.53;;;3.69;100.00
76022;BME280;64718;52.124;6.226;2023-11-18T02:23:18;102444.19;;;3.66;100.00
76022;BME280;64718;52.124;6.226;2023-11-18T02:25:48;102435.59;;;3.63;100.00
76022;BME280;64718;52.124;6.226;2023-11-18T02:28:15;102446.66;;;3.57;100.00
76022;BME280;64718;52.124;6.226;2023-11-18T02:30:42;102444.97;;;3.59;100.00
76022;BME280;64718;52.124;6.226;2023-11-18T02:33:15;102458.78;;;3.67;100.00
76022;BME280;64718;52.124;6.226;2023-11-18T02:35:47;102453.72;;;3.75;100.00
76022;BME280;64718;52.124;6.226;2023-11-18T02:38:15;102456.41;;;3.84;100.00
76022;BME280;64718;52.124;6.226;2023-11-18T02:40:45;102446.19;;;3.92;100.00
76022;BME280;64718;52.124;6.226;2023-11-18T02:43:15;102453.97;;;3.96;100.00
76022;BME280;64718;52.124;6.226;2023-11-18T02:45:42;102450.53;;;3.96;100.00
76022;BME280;64718;52.124;6.226;2023-11-18T02:48:09;102448.00;;;4.02;100.00
76022;BME280;64718;52.124;6.226;2023-11-18T02:50:36;102444.53;;;3.98;100.00
76022;BME280;64718;52.124;6.226;2023-11-18T02:53:03;102439.41;;;3.98;100.00
76022;BME280;64718;52.124;6.226;2023-11-18T02:55:30;102437.66;;;3.96;100.00
76022;BME280;64718;52.124;6.226;2023-11-18T02:57:56;102435.97;;;3.98;100.00
76022;BME280;64718;52.124;6.226;2023-11-18T03:00:24;102431.72;;;4.01;100.00
76022;BME280;64718;52.124;6.226;2023-11-18T03:02:51;102433.44;;;4.02;100.00
76022;BME280;64718;52.124;6.226;2023-11-18T03:05:18;102434.38;;;4.07;100.00
76022;BME280;64718;52.124;6.226;2023-11-18T03:07:45;102426.59;;;4.04;100.00
76022;BME280;64718;52.124;6.226;2023-11-18T03:10:14;102437.81;;;4.09;100.00
76022;BME280;64718;52.124;6.226;2023-11-18T03:12:46;102423.28;;;4.16;100.00
76022;BME280;64718;52.124;6.226;2023-11-18T03:15:13;102420.75;;;4.19;100.00
76022;BME280;64718;52.124;6.226;2023-11-18T03:17:43;102420.75;;;4.21;100.00
76022;BME280;64718;52.124;6.226;2023-11-18T03:20:11;102415.63;;;4.21;100.00
76022;BME280;64718;52.124;6.226;2023-11-18T03:22:39;102409.63;;;4.23;100.00
76022;BME280;64718;52.124;6.226;2023-11-18T03:25:07;102403.66;;;4.27;100.00
76022;BME280;64718;52.124;6.226;2023-11-18T03:27:33;102413.13;;;4.30;100.00
76022;BME280;64718;52.124;6.226;2023-11-18T03:30:00;102407.94;;;4.28;100.00
76022;BME280;64718;52.124;6.226;2023-11-18T03:32:26;102410.53;;;4.30;100.00
76022;BME280;64718;52.124;6.226;2023-11-18T03:34:54;102416.56;;;4.30;100.00
76022;BME280;64718;52.124;6.226;2023-11-18T03:37:24;102419.94;;;4.25;100.00
76022;BME280;64718;52.124;6.226;2023-11-18T03:39:51;102416.47;;;4.21;100.00
76022;BME280;64718;52.124;6.226;2023-11-18T03:42:18;102426.75;;;4.20;100.00
76022;BME280;64718;52.124;6.226;2023-11-18T03:44:44;102424.19;;;4.18;100.00
76022;BME280;64718;52.124;6.226;2023-11-18T03:47:12;102420.75;;;4.18;100.00
76022;BME280;64718;52.124;6.226;2023-11-18T03:49:39;102424.22;;;4.23;100.00
76022;BME280;64718;52.124;6.226;2023-11-18T03:52:07;102422.50;;;4.25;100.00
76022;BME280;64718;52.124;6.226;2023-11-18T03:54:33;102426.78;;;4.23;100.00
76022;BME280;64718;52.124;6.226;2023-11-18T03:57:00;102424.22;;;4.24;100.00
76022;BME280;64718;52.124;6.226;2023-11-18T03:59:26;102415.69;;;4.28;100.00
76022;BME280;64718;52.124;6.226;2023-11-18T04:01:53;102405.38;;;4.28;100.00
76022;BME280;64718;52.124;6.226;2023-11-18T04:04:19;102387.38;;;4.30;100.00
76022;BME280;64718;52.124;6.226;2023-11-18T04:06:46;102390.78;;;4.29;100.00
76022;BME280;64718;52.124;6.226;2023-11-18T04:09:14;102391.66;;;4.31;100.00
76022;BME280;64718;52.124;6.226;2023-11-18T04:11:41;102389.94;;;4.30;100.00
76022;BME280;64718;52.124;6.226;2023-11-18T04:14:10;102387.38;;;4.33;100.00
76022;BME280;64718;52.124;6.226;2023-11-18T04:16:37;102371.94;;;4.33;100.00
76022;BME280;64718;52.124;6.226;2023-11-18T04:19:04;102365.06;;;4.32;100.00
76022;BME280;64718;52.124;6.226;2023-11-18T04:21:30;102369.38;;;4.34;100.00
76022;BME280;64718;52.124;6.226;2023-11-18T04:23:57;102356.50;;;4.34;100.00
76022;BME280;64718;52.124;6.226;2023-11-18T04:26:25;102350.47;;;4.31;100.00
76022;BME280;64718;52.124;6.226;2023-11-18T04:28:51;102346.16;;;4.31;100.00
76022;BME280;64718;52.124;6.226;2023-11-18T04:31:18;102353.06;;;4.35;100.00
76022;BME280;64718;52.124;6.226;2023-11-18T04:33:44;102359.94;;;4.36;100.00
76022;BME280;64718;52.124;6.226;2023-11-18T04:36:11;102357.34;;;4.33;100.00
76022;BME280;64718;52.124;6.226;2023-11-18T04:38:38;102360.78;;;4.35;100.00
76022;BME280;64718;52.124;6.226;2023-11-18T04:41:05;102349.63;;;4.33;100.00
76022;BME280;64718;52.124;6.226;2023-11-18T04:43:33;102339.31;;;4.35;100.00
76022;BME280;64718;52.124;6.226;2023-11-18T04:46:00;102334.19;;;4.36;100.00
76022;BME280;64718;52.124;6.226;2023-11-18T04:48:26;102332.47;;;4.38;100.00
76022;BME280;64718;52.124;6.226;2023-11-18T04:50:53;102323.88;;;4.36;100.00
76022;BME280;64718;52.124;6.226;2023-11-18T04:53:19;102319.59;;;4.38;100.00
76022;BME280;64718;52.124;6.226;2023-11-18T04:55:46;102306.72;;;4.37;100.00
76022;BME280;64718;52.124;6.226;2023-11-18T04:58:12;102304.16;;;4.40;100.00
76022;BME280;64718;52.124;6.226;2023-11-18T05:00:40;102315.31;;;4.37;100.00
76022;BME280;64718;52.124;6.226;2023-11-18T05:03:07;102312.75;;;4.40;100.00
76022;BME280;64718;52.124;6.226;2023-11-18T05:05:35;102307.63;;;4.43;100.00
76022;BME280;64718;52.124;6.226;2023-11-18T05:08:03;102311.03;;;4.42;100.00
76022;BME280;64718;52.124;6.226;2023-11-18T05:10:31;102307.59;;;4.42;100.00
76022;BME280;64718;52.124;6.226;2023-11-18T05:12:58;102298.16;;;4.39;100.00
76022;BME280;64718;52.124;6.226;2023-11-18T05:15:24;102298.16;;;4.42;100.00
76022;BME280;64718;52.124;6.226;2023-11-18T05:17:52;102299.03;;;4.44;100.00
76022;BME280;64718;52.124;6.226;2023-11-18T05:20:19;102304.19;;;4.44;100.00
76022;BME280;64718;52.124;6.226;2023-11-18T05:22:47;102297.31;;;4.45;100.00
76022;BME280;64718;52.124;6.226;2023-11-18T05:25:13;102313.63;;;4.45;100.00
76022;BME280;64718;52.124;6.226;2023-11-18T05:27:40;102315.38;;;4.47;100.00
76022;BME280;64718;52.124;6.226;2023-11-18T05:30:07;102324.81;;;4.49;100.00
76022;BME280;64718;52.124;6.226;2023-11-18T05:32:34;102325.69;;;4.50;100.00
76022;BME280;64718;52.124;6.226;2023-11-18T05:35:03;102321.41;;;4.50;100.00
76022;BME280;64718;52.124;6.226;2023-11-18T05:37:30;102323.09;;;4.48;100.00
76022;BME280;64718;52.124;6.226;2023-11-18T05:40:00;102322.25;;;4.48;100.00
76022;BME280;64718;52.124;6.226;2023-11-18T05:42:31;102304.19;;;4.46;100.00
76022;BME280;64718;52.124;6.226;2023-11-18T05:44:58;102292.16;;;4.45;100.00
76022;BME280;64718;52.124;6.226;2023-11-18T05:47:25;102287.88;;;4.45;100.00
76022;BME280;64718;52.124;6.226;2023-11-18T05:49:52;102291.28;;;4.41;100.00
76022;BME280;64718;52.124;6.226;2023-11-18T05:52:19;102295.59;;;4.41;100.00
76022;BME280;64718;52.124;6.226;2023-11-18T05:54:46;102292.97;;;4.38;100.00
76022;BME280;64718;52.124;6.226;2023-11-18T05:57:14;102297.28;;;4.37;100.00
76022;BME280;64718;52.124;6.226;2023-11-18T05:59:41;102277.50;;;4.35;100.00
76022;BME280;64718;52.124;6.226;2023-11-18T06:02:08;102283.50;;;4.34;100.00
76022;BME280;64718;52.124;6.226;2023-11-18T06:04:38;102276.63;;;4.31;100.00
76022;BME280;64718;52.124;6.226;2023-11-18T06:07:04;102266.34;;;4.33;100.00
76022;BME280;64718;52.124;6.226;2023-11-18T06:09:32;102255.19;;;4.32;100.00
76022;BME280;64718;52.124;6.226;2023-11-18T06:11:59;102247.44;;;4.32;100.00
76022;BME280;64718;52.124;6.226;2023-11-18T06:14:26;102252.59;;;4.31;100.00
76022;BME280;64718;52.124;6.226;2023-11-18T06:16:52;102259.44;;;4.29;100.00
76022;BME280;64718;52.124;6.226;2023-11-18T06:19:19;102258.59;;;4.27;100.00
76022;BME280;64718;52.124;6.226;2023-11-18T06:21:46;102252.59;;;4.29;100.00
76022;BME280;64718;52.124;6.226;2023-11-18T06:24:13;102256.84;;;4.26;100.00
76022;BME280;64718;52.124;6.226;2023-11-18T06:26:41;102262.00;;;4.26;100.00
76022;BME280;64718;52.124;6.226;2023-11-18T06:29:07;102265.44;;;4.25;100.00
76022;BME280;64718;52.124;6.226;2023-11-18T06:31:34;102260.28;;;4.26;100.00
76022;BME280;64718;52.124;6.226;2023-11-18T06:34:00;102256.00;;;4.25;100.00
76022;BME280;64718;52.124;6.226;2023-11-18T06:36:27;102260.28;;;4.23;100.00
76022;BME280;64718;52.124;6.226;2023-11-18T06:38:56;102261.13;;;4.22;100.00
76022;BME280;64718;52.124;6.226;2023-11-18T06:41:24;102264.56;;;4.24;100.00
76022;BME280;64718;52.124;6.226;2023-11-18T06:43:52;102274.03;;;4.27;100.00
76022;BME280;64718;52.124;6.226;2023-11-18T06:46:27;102269.72;;;4.26;100.00
76022;BME280;64718;52.124;6.226;2023-11-18T06:48:57;102279.16;;;4.25;100.00
76022;BME280;64718;52.124;6.226;2023-11-18T06:51:26;102279.19;;;4.28;100.00
76022;BME280;64718;52.124;6.226;2023-11-18T06:53:53;102265.44;;;4.28;100.00
76022;BME280;64718;52.124;6.226;2023-11-18T06:56:21;102268.84;;;4.24;100.00
76022;BME280;64718;52.124;6.226;2023-11-18T06:58:48;102266.28;;;4.22;100.00
76022;BME280;64718;52.124;6.226;2023-11-18T07:01:16;102272.25;;;4.20;100.00
76022;BME280;64718;52.124;6.226;2023-11-18T07:03:44;102269.69;;;4.20;100.00
76022;BME280;64718;52.124;6.226;2023-11-18T07:06:11;102270.56;;;4.20;100.00
76022;BME280;64718;52.124;6.226;2023-11-18T07:08:39;102272.28;;;4.23;100.00
76022;BME280;64718;52.124;6.226;2023-11-18T07:11:06;102275.72;;;4.20;100.00
76022;BME280;64718;52.124;6.226;2023-11-18T07:13:33;102277.41;;;4.20;100.00
76022;BME280;64718;52.124;6.226;2023-11-18T07:16:00;102282.56;;;4.21;100.00
76022;BME280;64718;52.124;6.226;2023-11-18T07:18:30;102277.44;;;4.21;100.00
76022;BME280;64718;52.124;6.226;2023-11-18T07:20:58;102269.72;;;4.24;100.00
76022;BME280;64718;52.124;6.226;2023-11-18T07:23:24;102272.31;;;4.24;100.00
76022;BME280;64718;52.124;6.226;2023-11-18T07:25:51;102265.44;;;4.25;100.00
76022;BME280;64718;52.124;6.226;2023-11-18T07:28:18;102262.00;;;4.26;100.00
76022;BME280;64718;52.124;6.226;2023-11-18T07:30:45;102267.16;;;4.26;100.00
76022;BME280;64718;52.124;6.226;2023-11-18T07:33:12;102261.16;;;4.30;100.00
76022;BME280;64718;52.124;6.226;2023-11-18T07:35:41;102269.75;;;4.27;100.00
76022;BME280;64718;52.124;6.226;2023-11-18T07:38:07;102260.31;;;4.28;100.00
76022;BME280;64718;52.124;6.226;2023-11-18T07:40:34;102258.63;;;4.33;100.00
76022;BME280;64718;52.124;6.226;2023-11-18T07:43:02;102262.03;;;4.32;100.00
76022;BME280;64718;52.124;6.226;2023-11-18T07:45:34;102262.94;;;4.38;100.00
76022;BME280;64718;52.124;6.226;2023-11-18T07:48:03;102254.34;;;4.35;100.00
76022;BME280;64718;52.124;6.226;2023-11-18T07:50:31;102262.94;;;4.40;100.00
76022;BME280;64718;52.124;6.226;2023-11-18T07:52:59;102257.81;;;4.41;100.00
76022;BME280;64718;52.124;6.226;2023-11-18T07:55:26;102261.25;;;4.42;100.00
76022;BME280;64718;52.124;6.226;2023-11-18T07:57:52;102262.97;;;4.43;100.00
76022;BME280;64718;52.124;6.226;2023-11-18T08:00:19;102263.84;;;4.45;100.00
76022;BME280;64718;52.124;6.226;2023-11-18T08:02:46;102268.16;;;4.49;100.00
76022;BME280;64718;52.124;6.226;2023-11-18T08:05:12;102256.97;;;4.47;100.00
76022;BME280;64718;52.124;6.226;2023-11-18T08:07:39;102251.84;;;4.49;100.00
76022;BME280;64718;52.124;6.226;2023-11-18T08:10:08;102249.28;;;4.52;100.00
76022;BME280;64718;52.124;6.226;2023-11-18T08:12:38;102251.00;;;4.56;100.00
76022;BME280;64718;52.124;6.226;2023-11-18T08:15:06;102249.28;;;4.58;100.00
76022;BME280;64718;52.124;6.226;2023-11-18T08:17:34;102245.88;;;4.59;100.00
76022;BME280;64718;52.124;6.226;2023-11-18T08:20:01;102245.03;;;4.61;100.00
76022;BME280;64718;52.124;6.226;2023-11-18T08:22:32;102239.91;;;4.64;100.00
76022;BME280;64718;52.124;6.226;2023-11-18T08:24:59;102236.47;;;4.65;100.00
76022;BME280;64718;52.124;6.226;2023-11-18T08:27:27;102233.91;;;4.65;100.00
76022;BME280;64718;52.124;6.226;2023-11-18T08:29:54;102217.59;;;4.66;100.00
76022;BME280;64718;52.124;6.226;2023-11-18T08:32:20;102221.91;;;4.73;100.00
76022;BME280;64718;52.124;6.226;2023-11-18T08:34:50;102224.47;;;4.72;100.00
76022;BME280;64718;52.124;6.226;2023-11-18T08:37:16;102230.50;;;4.74;100.00
76022;BME280;64718;52.124;6.226;2023-11-18T08:39:43;102228.81;;;4.79;100.00
76022;BME280;64718;52.124;6.226;2023-11-18T08:42:09;102215.91;;;4.81;100.00
76022;BME280;64718;52.124;6.226;2023-11-18T08:44:39;102201.31;;;4.81;100.00
76022;BME280;64718;52.124;6.226;2023-11-18T08:47:05;102205.63;;;4.84;100.00
76022;BME280;64718;52.124;6.226;2023-11-18T08:49:34;102201.31;;;4.84;100.00
76022;BME280;64718;52.124;6.226;2023-11-18T08:52:00;102196.16;;;4.87;100.00
76022;BME280;64718;52.124;6.226;2023-11-18T08:54:27;102196.16;;;4.87;100.00
76022;BME280;64718;52.124;6.226;2023-11-18T08:57:03;102199.63;;;4.88;100.00
76022;BME280;64718;52.124;6.226;2023-11-18T08:59:42;102197.03;;;4.86;100.00
76022;BME280;64718;52.124;6.226;2023-11-18T09:02:09;102197.91;;;4.88;100.00
76022;BME280;64718;52.124;6.226;2023-11-18T09:04:40;102194.47;;;4.92;100.00
76022;BME280;64718;52.124;6.226;2023-11-18T09:07:08;102179.88;;;4.93;100.00
76022;BME280;64718;52.124;6.226;2023-11-18T09:09:35;102176.44;;;4.98;100.00
76022;BME280;64718;52.124;6.226;2023-11-18T09:12:02;102179.00;;;5.01;100.00
76022;BME280;64718;52.124;6.226;2023-11-18T09:14:29;102176.44;;;5.06;100.00
76022;BME280;64718;52.124;6.226;2023-11-18T09:16:57;102168.72;;;5.11;100.00
76022;BME280;64718;52.124;6.226;2023-11-18T09:19:24;102155.81;;;5.18;100.00
76022;BME280;64718;52.124;6.226;2023-11-18T09:21:51;102164.47;;;5.20;100.00
76022;BME280;64718;52.124;6.226;2023-11-18T09:24:19;102159.31;;;5.26;100.00
76022;BME280;64718;52.124;6.226;2023-11-18T09:26:46;102155.88;;;5.29;100.00
76022;BME280;64718;52.124;6.226;2023-11-18T09:29:15;102153.28;;;5.30;100.00
76022;BME280;64718;52.124;6.226;2023-11-18T09:31:43;102161.88;;;5.34;100.00
76022;BME280;64718;52.124;6.226;2023-11-18T09:34:15;102154.16;;;5.34;100.00
76022;BME280;64718;52.124;6.226;2023-11-18T09:36:42;102153.28;;;5.35;100.00
76022;BME280;64718;52.124;6.226;2023-11-18T09:39:09;102144.69;;;5.34;100.00
76022;BME280;64718;52.124;6.226;2023-11-18T09:41:41;102150.69;;;5.41;100.00
76022;BME280;64718;52.124;6.226;2023-11-18T09:44:08;102147.25;;;5.36;100.00
76022;BME280;64718;52.124;6.226;2023-11-18T09:46:40;102139.53;;;5.34;100.00
76022;BME280;64718;52.124;6.226;2023-11-18T09:49:14;102131.78;;;5.37;100.00
76022;BME280;64718;52.124;6.226;2023-11-18T09:51:45;102127.47;;;5.38;100.00
76022;BME280;64718;52.124;6.226;2023-11-18T09:54:19;102125.75;;;5.38;100.00
76022;BME280;64718;52.124;6.226;2023-11-18T09:56:51;102134.38;;;5.44;100.00
76022;BME280;64718;52.124;6.226;2023-11-18T09:59:25;102122.31;;;5.44;100.00
76022;BME280;64718;52.124;6.226;2023-11-18T10:02:00;102106.84;;;5.43;100.00
76022;BME280;64718;52.124;6.226;2023-11-18T10:04:29;102100.81;;;5.44;100.00
76022;BME280;64718;52.124;6.226;2023-11-18T10:06:58;102099.97;;;5.45;100.00
76022;BME280;64718;52.124;6.226;2023-11-18T10:09:27;102095.66;;;5.51;100.00
76022;BME280;64718;52.124;6.226;2023-11-18T10:11:55;102088.75;;;5.52;100.00
76022;BME280;64718;52.124;6.226;2023-11-18T10:14:25;102070.69;;;5.55;100.00
76022;BME280;64718;52.124;6.226;2023-11-18T10:16:52;102068.97;;;5.54;100.00
76022;BME280;64718;52.124;6.226;2023-11-18T10:19:19;102072.41;;;5.54;100.00
76022;BME280;64718;52.124;6.226;2023-11-18T10:21:46;102068.09;;;5.58;100.00
76022;BME280;64718;52.124;6.226;2023-11-18T10:24:16;102064.66;;;5.62;100.00
76022;BME280;64718;52.124;6.226;2023-11-18T10:26:45;102070.66;;;5.64;100.00
76022;BME280;64718;52.124;6.226;2023-11-18T10:29:14;102071.50;;;5.70;100.00
76022;BME280;64718;52.124;6.226;2023-11-18T10:31:43;102057.72;;;5.75;100.00
76022;BME280;64718;52.124;6.226;2023-11-18T10:34:12;102055.16;;;5.75;100.00
76022;BME280;64718;52.124;6.226;2023-11-18T10:36:40;102045.69;;;5.77;100.00
76022;BME280;64718;52.124;6.226;2023-11-18T10:39:10;102042.25;;;5.81;100.00
76022;BME280;64718;52.124;6.226;2023-11-18T10:41:41;102046.56;;;5.83;100.00
76022;BME280;64718;52.124;6.226;2023-11-18T10:44:09;102039.66;;;5.88;100.00
76022;BME280;64718;52.124;6.226;2023-11-18T10:46:39;102034.50;;;5.94;100.00
76022;BME280;64718;52.124;6.226;2023-11-18T10:49:06;102014.69;;;5.92;100.00
76022;BME280;64718;52.124;6.226;2023-11-18T10:51:35;102013.84;;;5.91;100.00
76022;BME280;64718;52.124;6.226;2023-11-18T10:54:04;102025.03;;;5.93;100.00
76022;BME280;64718;52.124;6.226;2023-11-18T10:56:46;102035.38;;;5.90;100.00
76022;BME280;64718;52.124;6.226;2023-11-18T10:59:13;102032.78;;;5.92;100.00
76022;BME280;64718;52.124;6.226;2023-11-18T11:01:42;102038.78;;;5.95;100.00
76022;BME280;64718;52.124;6.226;2023-11-18T11:04:10;102049.13;;;5.92;100.00
76022;BME280;64718;52.124;6.226;2023-11-18T11:06:41;102047.38;;;5.96;100.00
76022;BME280;64718;52.124;6.226;2023-11-18T11:09:08;102036.19;;;5.97;100.00
76022;BME280;64718;52.124;6.226;2023-11-18T11:11:47;102025.88;;;5.98;100.00
76022;BME280;64718;52.124;6.226;2023-11-18T11:14:15;102028.44;;;6.00;100.00
76022;BME280;64718;52.124;6.226;2023-11-18T11:16:45;102036.16;;;6.05;100.00
76022;BME280;64718;52.124;6.226;2023-11-18T11:19:20;102018.94;;;6.05;100.00
76022;BME280;64718;52.124;6.226;2023-11-18T11:21:57;102015.50;;;6.05;100.00
76022;BME280;64718;52.124;6.226;2023-11-18T11:24:41;102021.50;;;6.08;100.00
76022;BME280;64718;52.124;6.226;2023-11-18T11:27:17;102017.22;;;6.06;100.00
76022;BME280;64718;52.124;6.226;2023-11-18T11:29:59;101992.25;;;6.05;100.00
76022;BME280;64718;52.124;6.226;2023-11-18T11:32:29;101972.50;;;5.99;100.00
76022;BME280;64718;52.124;6.226;2023-11-18T11:35:00;101963.03;;;5.95;100.00
76022;BME280;64718;52.124;6.226;2023-11-18T11:37:33;101970.78;;;5.96;100.00
76022;BME280;64718;52.124;6.226;2023-11-18T11:40:02;101975.94;;;5.98;100.00
76022;BME280;64718;52.124;6.226;2023-11-18T11:42:35;101973.34;;;5.98;100.00
76022;BME280;64718;52.124;6.226;2023-11-18T11:45:03;101965.63;;;5.98;100.00
76022;BME280;64718;52.124;6.226;2023-11-18T11:47:33;101954.44;;;5.97;100.00
76022;BME280;64718;52.124;6.226;2023-11-18T11:50:10;101950.09;;;5.99;100.00
76022;BME280;64718;52.124;6.226;2023-11-18T11:52:45;101929.44;;;5.99;100.00
76022;BME280;64718;52.124;6.226;2023-11-18T11:55:23;101906.19;;;6.01;100.00
76022;BME280;64718;52.124;6.226;2023-11-18T11:57:55;101910.50;;;6.03;100.00
76022;BME280;64718;52.124;6.226;2023-11-18T12:00:23;101898.44;;;6.02;100.00
76022;BME280;64718;52.124;6.226;2023-11-18T12:02:52;101885.50;;;6.06;100.00
76022;BME280;64718;52.124;6.226;2023-11-18T12:05:20;101880.31;;;6.09;100.00
76022;BME280;64718;52.124;6.226;2023-11-18T12:07:52;101866.53;;;6.13;100.00
76022;BME280;64718;52.124;6.226;2023-11-18T12:10:20;101869.94;;;6.15;100.00
76022;BME280;64718;52.124;6.226;2023-11-18T12:12:47;101882.84;;;6.18;100.00
76022;BME280;64718;52.124;6.226;2023-11-18T12:15:47;101881.91;;;6.25;100.00
76022;BME280;64718;52.124;6.226;2023-11-18T12:18:19;101881.06;;;6.23;100.00
76022;BME280;64718;52.124;6.226;2023-11-18T12:20:47;101877.63;;;6.24;100.00
76022;BME280;64718;52.124;6.226;2023-11-18T12:23:19;101877.63;;;6.22;100.00
76022;BME280;64718;52.124;6.226;2023-11-18T12:25:48;101863.84;;;6.25;100.00
76022;BME280;64718;52.124;6.226;2023-11-18T12:28:20;101848.31;;;6.26;100.00
76022;BME280;64718;52.124;6.226;2023-11-18T12:30:53;101837.97;;;6.29;100.00
76022;BME280;64718;52.124;6.226;2023-11-18T12:34:00;101830.16;;;6.35;100.00
76022;BME280;64718;52.124;6.226;2023-11-18T12:37:08;101822.41;;;6.39;100.00
76022;BME280;64718;52.124;6.226;2023-11-18T12:40:12;101813.78;;;6.38;100.00
76022;BME280;64718;52.124;6.226;2023-11-18T12:43:05;101806.91;;;6.39;100.00
76022;BME280;64718;52.124;6.226;2023-11-18T12:48:43;101774.13;;;6.42;100.00
76022;BME280;64718;52.124;6.226;2023-11-18T12:51:12;101750.03;;;6.42;100.00
76022;BME280;64718;52.124;6.226;2023-11-18T12:53:46;101745.69;;;6.44;100.00
76022;BME280;64718;52.124;6.226;2023-11-18T12:56:14;101743.94;;;6.46;100.00
76022;BME280;64718;52.124;6.226;2023-11-18T12:58:42;101749.97;;;6.46;100.00
76022;BME280;64718;52.124;6.226;2023-11-18T13:01:09;101743.94;;;6.46;100.00